sensor_id;sensor_type;location;lat;lon;timestamp;temperature;humidity
37410;DHT22;23275;48.914;12.566;2024-03-02T00:00:21;5.60;99.90
37410;DHT22;23275;48.914;12.566;2024-03-02T00:02:48;5.60;99.90
37410;DHT22;23275;48.914;12.566;2024-03-02T00:05:18;5.60;99.90
37410;DHT22;23275;48.914;12.566;2024-03-02T00:07:46;5.60;99.90
37410;DHT22;23275;48.914;12.566;2024-03-02T00:10:16;5.60;99.90
37410;DHT22;23275;48.914;12.566;2024-03-02T00:12:47;5.60;99.90
37410;DHT22;23275;48.914;12.566;2024-03-02T00:17:52;5.60;99.90
37410;DHT22;23275;48.914;12.566;2024-03-02T00:20:21;5.50;99.90
37410;DHT22;23275;48.914;12.566;2024-03-02T00:22:47;5.60;99.90
37410;DHT22;23275;48.914;12.566;2024-03-02T00:25:12;5.60;99.90
37410;DHT22;23275;48.914;12.566;2024-03-02T00:27:38;5.60;99.90
37410;DHT22;23275;48.914;12.566;2024-03-02T00:33:11;5.50;99.90
37410;DHT22;23275;48.914;12.566;2024-03-02T00:35:36;5.50;99.90
37410;DHT22;23275;48.914;12.566;2024-03-02T00:38:06;5.50;99.90
37410;DHT22;23275;48.914;12.566;2024-03-02T00:40:32;5.50;99.90
37410;DHT22;23275;48.914;12.566;2024-03-02T00:42:57;5.60;99.90
37410;DHT22;23275;48.914;12.566;2024-03-02T00:45:24;5.50;99.90
37410;DHT22;23275;48.914;12.566;2024-03-02T00:47:50;5.50;99.90
37410;DHT22;23275;48.914;12.566;2024-03-02T00:50:16;5.50;99.90
37410;DHT22;23275;48.914;12.566;2024-03-02T00:52:42;5.60;99.90
37410;DHT22;23275;48.914;12.566;2024-03-02T00:55:08;5.60;99.90
37410;DHT22;23275;48.914;12.566;2024-03-02T00:57:34;5.60;99.90
37410;DHT22;23275;48.914;12.566;2024-03-02T01:00:00;5.60;99.90
37410;DHT22;23275;48.914;12.566;2024-03-02T01:02:26;5.70;99.90
37410;DHT22;23275;48.914;12.566;2024-03-02T01:04:52;5.70;99.90
37410;DHT22;23275;48.914;12.566;2024-03-02T01:07:17;5.70;99.90
37410;DHT22;23275;48.914;12.566;2024-03-02T01:09:43;5.70;99.90
37410;DHT22;23275;48.914;12.566;2024-03-02T01:12:09;5.70;99.90
37410;DHT22;23275;48.914;12.566;2024-03-02T01:14:34;5.70;99.90
37410;DHT22;23275;48.914;12.566;2024-03-02T01:17:00;5.70;99.90
37410;DHT22;23275;48.914;12.566;2024-03-02T01:19:29;5.70;99.90
37410;DHT22;23275;48.914;12.566;2024-03-02T01:21:55;5.70;99.90
37410;DHT22;23275;48.914;12.566;2024-03-02T01:24:21;5.60;99.90
37410;DHT22;23275;48.914;12.566;2024-03-02T01:26:46;5.70;99.90
37410;DHT22;23275;48.914;12.566;2024-03-02T01:29:12;5.60;99.90
37410;DHT22;23275;48.914;12.566;2024-03-02T01:31:37;5.70;99.90
37410;DHT22;23275;48.914;12.566;2024-03-02T01:34:03;5.60;99.90
37410;DHT22;23275;48.914;12.566;2024-03-02T01:36:28;5.60;99.90
37410;DHT22;23275;48.914;12.566;2024-03-02T01:38:54;5.60;99.90
37410;DHT22;23275;48.914;12.566;2024-03-02T01:41:19;5.70;99.90
37410;DHT22;23275;48.914;12.566;2024-03-02T01:43:45;5.60;99.90
37410;DHT22;23275;48.914;12.566;2024-03-02T01:46:10;5.60;99.90
37410;DHT22;23275;48.914;12.566;2024-03-02T01:48:36;5.60;99.90
37410;DHT22;23275;48.914;12.566;2024-03-02T01:51:02;5.60;99.90
37410;DHT22;23275;48.914;12.566;2024-03-02T01:53:27;5.60;99.90
37410;DHT22;23275;48.914;12.566;2024-03-02T01:55:53;5.60;99.90
37410;DHT22;23275;48.914;12.566;2024-03-02T01:58:19;5.60;99.90
37410;DHT22;23275;48.914;12.566;2024-03-02T02:00:44;5.60;99.90
37410;DHT22;23275;48.914;12.566;2024-03-02T02:03:10;5.60;99.90
37410;DHT22;23275;48.914;12.566;2024-03-02T02:05:36;5.60;99.90
37410;DHT22;23275;48.914;12.566;2024-03-02T02:08:02;5.60;99.90
37410;DHT22;23275;48.914;12.566;2024-03-02T02:10:27;5.60;99.90
37410;DHT22;23275;48.914;12.566;2024-03-02T02:12:53;5.60;99.90
37410;DHT22;23275;48.914;12.566;2024-03-02T02:15:22;5.60;99.90
37410;DHT22;23275;48.914;12.566;2024-03-02T02:17:48;5.60;99.90
37410;DHT22;23275;48.914;12.566;2024-03-02T02:20:13;5.60;99.90
37410;DHT22;23275;48.914;12.566;2024-03-02T02:22:39;5.60;99.90
37410;DHT22;23275;48.914;12.566;2024-03-02T02:25:05;5.60;99.90
37410;DHT22;23275;48.914;12.566;2024-03-02T02:27:31;5.60;99.90
37410;DHT22;23275;48.914;12.566;2024-03-02T02:29:56;5.60;99.90
37410;DHT22;23275;48.914;12.566;2024-03-02T02:32:22;5.60;99.90
37410;DHT22;23275;48.914;12.566;2024-03-02T02:34:52;5.60;99.90
37410;DHT22;23275;48.914;12.566;2024-03-02T02:37:18;5.60;99.90
37410;DHT22;23275;48.914;12.566;2024-03-02T02:39:43;5.60;99.90
37410;DHT22;23275;48.914;12.566;2024-03-02T02:42:09;5.60;99.90
37410;DHT22;23275;48.914;12.566;2024-03-02T02:44:34;5.60;99.90
37410;DHT22;23275;48.914;12.566;2024-03-02T02:47:00;5.60;99.90
37410;DHT22;23275;48.914;12.566;2024-03-02T02:49:25;5.60;99.90
37410;DHT22;23275;48.914;12.566;2024-03-02T02:51:52;5.60;99.90
37410;DHT22;23275;48.914;12.566;2024-03-02T02:54:17;5.60;99.90
37410;DHT22;23275;48.914;12.566;2024-03-02T02:56:43;5.60;99.90
37410;DHT22;23275;48.914;12.566;2024-03-02T02:59:08;5.60;99.90
37410;DHT22;23275;48.914;12.566;2024-03-02T03:01:34;5.60;99.90
37410;DHT22;23275;48.914;12.566;2024-03-02T03:06:06;5.60;99.90
37410;DHT22;23275;48.914;12.566;2024-03-02T03:08:32;5.60;99.90
37410;DHT22;23275;48.914;12.566;2024-03-02T03:10:58;5.60;99.90
37410;DHT22;23275;48.914;12.566;2024-03-02T03:13:23;5.70;99.90
37410;DHT22;23275;48.914;12.566;2024-03-02T03:15:49;5.70;99.90
37410;DHT22;23275;48.914;12.566;2024-03-02T03:18:14;5.70;99.90
37410;DHT22;23275;48.914;12.566;2024-03-02T03:20:40;5.70;99.90
37410;DHT22;23275;48.914;12.566;2024-03-02T03:23:06;5.70;99.90
37410;DHT22;23275;48.914;12.566;2024-03-02T03:25:31;5.60;99.90
37410;DHT22;23275;48.914;12.566;2024-03-02T03:27:57;5.60;99.90
37410;DHT22;23275;48.914;12.566;2024-03-02T03:30:22;5.70;99.90
37410;DHT22;23275;48.914;12.566;2024-03-02T03:32:48;5.70;99.90
37410;DHT22;23275;48.914;12.566;2024-03-02T03:35:14;5.60;99.90
37410;DHT22;23275;48.914;12.566;2024-03-02T03:37:41;5.60;99.90
37410;DHT22;23275;48.914;12.566;2024-03-02T03:40:07;5.70;99.90
37410;DHT22;23275;48.914;12.566;2024-03-02T03:42:38;5.70;99.90
37410;DHT22;23275;48.914;12.566;2024-03-02T03:45:05;5.70;99.90
37410;DHT22;23275;48.914;12.566;2024-03-02T03:47:33;5.70;99.90
37410;DHT22;23275;48.914;12.566;2024-03-02T03:49:59;5.70;99.90
37410;DHT22;23275;48.914;12.566;2024-03-02T03:52:24;5.70;99.90
37410;DHT22;23275;48.914;12.566;2024-03-02T03:54:50;5.70;99.90
37410;DHT22;23275;48.914;12.566;2024-03-02T03:57:16;5.70;99.90
37410;DHT22;23275;48.914;12.566;2024-03-02T03:59:42;5.70;99.90
37410;DHT22;23275;48.914;12.566;2024-03-02T04:02:08;5.70;99.90
37410;DHT22;23275;48.914;12.566;2024-03-02T04:04:34;5.70;99.90
37410;DHT22;23275;48.914;12.566;2024-03-02T04:07:00;5.70;99.90
37410;DHT22;23275;48.914;12.566;2024-03-02T04:09:25;5.70;99.90
37410;DHT22;23275;48.914;12.566;2024-03-02T04:11:51;5.70;99.90
37410;DHT22;23275;48.914;12.566;2024-03-02T04:14:17;5.80;99.90
37410;DHT22;23275;48.914;12.566;2024-03-02T04:16:42;5.80;99.90
37410;DHT22;23275;48.914;12.566;2024-03-02T04:19:08;5.80;99.90
37410;DHT22;23275;48.914;12.566;2024-03-02T04:21:34;5.80;99.90
37410;DHT22;23275;48.914;12.566;2024-03-02T04:23:59;5.80;99.90
37410;DHT22;23275;48.914;12.566;2024-03-02T04:26:27;5.80;99.90
37410;DHT22;23275;48.914;12.566;2024-03-02T04:28:53;5.80;99.90
37410;DHT22;23275;48.914;12.566;2024-03-02T04:31:19;5.80;99.90
37410;DHT22;23275;48.914;12.566;2024-03-02T04:33:45;5.80;99.90
37410;DHT22;23275;48.914;12.566;2024-03-02T04:36:11;5.80;99.90
37410;DHT22;23275;48.914;12.566;2024-03-02T04:38:37;5.80;99.90
37410;DHT22;23275;48.914;12.566;2024-03-02T04:41:04;5.80;99.90
37410;DHT22;23275;48.914;12.566;2024-03-02T04:43:30;5.80;99.90
37410;DHT22;23275;48.914;12.566;2024-03-02T04:45:57;5.80;99.90
37410;DHT22;23275;48.914;12.566;2024-03-02T04:48:23;5.80;99.90
37410;DHT22;23275;48.914;12.566;2024-03-02T04:50:48;5.70;99.90
37410;DHT22;23275;48.914;12.566;2024-03-02T04:53:14;5.80;99.90
37410;DHT22;23275;48.914;12.566;2024-03-02T04:55:39;5.80;99.90
37410;DHT22;23275;48.914;12.566;2024-03-02T04:58:05;5.80;99.90
37410;DHT22;23275;48.914;12.566;2024-03-02T05:00:32;5.80;99.90
37410;DHT22;23275;48.914;12.566;2024-03-02T05:02:57;5.70;99.90
37410;DHT22;23275;48.914;12.566;2024-03-02T05:05:23;5.80;99.90
37410;DHT22;23275;48.914;12.566;2024-03-02T05:07:48;5.70;99.90
37410;DHT22;23275;48.914;12.566;2024-03-02T05:10:14;5.70;99.90
37410;DHT22;23275;48.914;12.566;2024-03-02T05:12:40;5.70;99.90
37410;DHT22;23275;48.914;12.566;2024-03-02T05:15:08;5.70;99.90
37410;DHT22;23275;48.914;12.566;2024-03-02T05:17:35;5.70;99.90
37410;DHT22;23275;48.914;12.566;2024-03-02T05:20:01;5.70;99.90
37410;DHT22;23275;48.914;12.566;2024-03-02T05:22:27;5.70;99.90
37410;DHT22;23275;48.914;12.566;2024-03-02T05:24:52;5.70;99.90
37410;DHT22;23275;48.914;12.566;2024-03-02T05:27:18;5.70;99.90
37410;DHT22;23275;48.914;12.566;2024-03-02T05:29:43;5.70;99.90
37410;DHT22;23275;48.914;12.566;2024-03-02T05:32:09;5.70;99.90
37410;DHT22;23275;48.914;12.566;2024-03-02T05:34:34;5.70;99.90
37410;DHT22;23275;48.914;12.566;2024-03-02T05:37:01;5.70;99.90
37410;DHT22;23275;48.914;12.566;2024-03-02T05:39:26;5.70;99.90
37410;DHT22;23275;48.914;12.566;2024-03-02T05:41:52;5.70;99.90
37410;DHT22;23275;48.914;12.566;2024-03-02T05:44:18;5.70;99.90
37410;DHT22;23275;48.914;12.566;2024-03-02T05:46:45;5.70;99.90
37410;DHT22;23275;48.914;12.566;2024-03-02T05:49:11;5.70;99.90
37410;DHT22;23275;48.914;12.566;2024-03-02T05:51:37;5.70;99.90
37410;DHT22;23275;48.914;12.566;2024-03-02T05:54:03;5.70;99.90
37410;DHT22;23275;48.914;12.566;2024-03-02T05:56:28;5.70;99.90
37410;DHT22;23275;48.914;12.566;2024-03-02T05:58:54;5.60;99.90
37410;DHT22;23275;48.914;12.566;2024-03-02T06:01:42;5.70;99.90
37410;DHT22;23275;48.914;12.566;2024-03-02T06:04:11;5.60;99.90
37410;DHT22;23275;48.914;12.566;2024-03-02T06:06:37;5.60;99.90
37410;DHT22;23275;48.914;12.566;2024-03-02T06:09:03;5.60;99.90
37410;DHT22;23275;48.914;12.566;2024-03-02T06:11:40;5.70;99.90
37410;DHT22;23275;48.914;12.566;2024-03-02T06:14:07;5.60;99.90
37410;DHT22;23275;48.914;12.566;2024-03-02T06:16:33;5.60;99.90
37410;DHT22;23275;48.914;12.566;2024-03-02T06:19:00;5.60;99.90
37410;DHT22;23275;48.914;12.566;2024-03-02T06:21:26;5.60;99.90
37410;DHT22;23275;48.914;12.566;2024-03-02T06:23:52;5.60;99.90
37410;DHT22;23275;48.914;12.566;2024-03-02T06:26:18;5.70;99.90
37410;DHT22;23275;48.914;12.566;2024-03-02T06:28:44;5.60;99.90
37410;DHT22;23275;48.914;12.566;2024-03-02T06:31:10;5.60;99.90
37410;DHT22;23275;48.914;12.566;2024-03-02T06:33:35;5.60;99.90
37410;DHT22;23275;48.914;12.566;2024-03-02T06:36:01;5.60;99.90
37410;DHT22;23275;48.914;12.566;2024-03-02T06:38:27;5.60;99.90
37410;DHT22;23275;48.914;12.566;2024-03-02T06:40:53;5.60;99.90
37410;DHT22;23275;48.914;12.566;2024-03-02T06:43:18;5.60;99.90
37410;DHT22;23275;48.914;12.566;2024-03-02T06:45:49;5.60;99.90
37410;DHT22;23275;48.914;12.566;2024-03-02T06:48:14;5.60;99.90
37410;DHT22;23275;48.914;12.566;2024-03-02T06:50:44;5.60;99.90
37410;DHT22;23275;48.914;12.566;2024-03-02T06:53:09;5.60;99.90
37410;DHT22;23275;48.914;12.566;2024-03-02T06:55:35;5.60;99.90
37410;DHT22;23275;48.914;12.566;2024-03-02T06:58:00;5.60;99.90
37410;DHT22;23275;48.914;12.566;2024-03-02T07:00:26;5.60;99.90
37410;DHT22;23275;48.914;12.566;2024-03-02T07:02:51;5.60;99.90
37410;DHT22;23275;48.914;12.566;2024-03-02T07:05:17;5.60;99.90
37410;DHT22;23275;48.914;12.566;2024-03-02T07:07:43;5.70;99.90
37410;DHT22;23275;48.914;12.566;2024-03-02T07:10:08;5.70;99.90
37410;DHT22;23275;48.914;12.566;2024-03-02T07:12:34;5.70;99.90
37410;DHT22;23275;48.914;12.566;2024-03-02T07:14:59;5.70;99.90
37410;DHT22;23275;48.914;12.566;2024-03-02T07:17:28;5.70;99.90
37410;DHT22;23275;48.914;12.566;2024-03-02T07:19:57;5.70;99.90
37410;DHT22;23275;48.914;12.566;2024-03-02T07:22:24;5.70;99.90
37410;DHT22;23275;48.914;12.566;2024-03-02T07:24:49;5.70;99.90
37410;DHT22;23275;48.914;12.566;2024-03-02T07:27:16;5.80;99.90
37410;DHT22;23275;48.914;12.566;2024-03-02T07:29:42;5.80;99.90
37410;DHT22;23275;48.914;12.566;2024-03-02T07:32:09;5.80;99.90
37410;DHT22;23275;48.914;12.566;2024-03-02T07:34:35;5.80;99.90
37410;DHT22;23275;48.914;12.566;2024-03-02T07:37:00;5.80;99.90
37410;DHT22;23275;48.914;12.566;2024-03-02T07:39:26;5.90;99.90
37410;DHT22;23275;48.914;12.566;2024-03-02T07:41:52;5.90;99.90
37410;DHT22;23275;48.914;12.566;2024-03-02T07:44:18;6.00;99.90
37410;DHT22;23275;48.914;12.566;2024-03-02T07:46:45;6.00;99.90
37410;DHT22;23275;48.914;12.566;2024-03-02T07:49:20;6.10;99.90
37410;DHT22;23275;48.914;12.566;2024-03-02T07:51:46;6.10;99.90
37410;DHT22;23275;48.914;12.566;2024-03-02T07:54:11;6.20;99.90
37410;DHT22;23275;48.914;12.566;2024-03-02T07:56:37;6.10;99.90
37410;DHT22;23275;48.914;12.566;2024-03-02T07:59:03;6.20;99.90
37410;DHT22;23275;48.914;12.566;2024-03-02T08:01:29;6.20;99.90
37410;DHT22;23275;48.914;12.566;2024-03-02T08:03:59;6.20;99.90
37410;DHT22;23275;48.914;12.566;2024-03-02T08:06:28;6.10;99.90
37410;DHT22;23275;48.914;12.566;2024-03-02T08:08:57;6.20;99.90
37410;DHT22;23275;48.914;12.566;2024-03-02T08:11:23;6.10;99.90
37410;DHT22;23275;48.914;12.566;2024-03-02T08:13:49;6.20;99.90
37410;DHT22;23275;48.914;12.566;2024-03-02T08:16:18;6.20;99.90
37410;DHT22;23275;48.914;12.566;2024-03-02T08:18:46;6.30;99.90
37410;DHT22;23275;48.914;12.566;2024-03-02T08:21:12;6.30;99.90
37410;DHT22;23275;48.914;12.566;2024-03-02T08:23:38;6.40;99.90
37410;DHT22;23275;48.914;12.566;2024-03-02T08:26:03;6.50;99.90
37410;DHT22;23275;48.914;12.566;2024-03-02T08:28:29;6.50;99.90
37410;DHT22;23275;48.914;12.566;2024-03-02T08:30:55;6.70;99.90
37410;DHT22;23275;48.914;12.566;2024-03-02T08:33:21;6.70;99.90
37410;DHT22;23275;48.914;12.566;2024-03-02T08:35:46;6.80;99.90
37410;DHT22;23275;48.914;12.566;2024-03-02T08:38:12;6.80;99.90
37410;DHT22;23275;48.914;12.566;2024-03-02T08:40:38;6.90;99.90
37410;DHT22;23275;48.914;12.566;2024-03-02T08:43:03;7.00;99.90
37410;DHT22;23275;48.914;12.566;2024-03-02T08:45:29;7.00;99.90
37410;DHT22;23275;48.914;12.566;2024-03-02T08:47:55;7.20;99.90
37410;DHT22;23275;48.914;12.566;2024-03-02T08:50:20;7.40;99.90
37410;DHT22;23275;48.914;12.566;2024-03-02T08:52:46;7.70;99.90
37410;DHT22;23275;48.914;12.566;2024-03-02T08:55:11;7.80;99.90
37410;DHT22;23275;48.914;12.566;2024-03-02T08:57:37;7.80;99.90
37410;DHT22;23275;48.914;12.566;2024-03-02T09:00:03;7.60;99.90
37410;DHT22;23275;48.914;12.566;2024-03-02T09:02:31;7.50;99.90
37410;DHT22;23275;48.914;12.566;2024-03-02T09:04:57;7.40;99.90
37410;DHT22;23275;48.914;12.566;2024-03-02T09:07:23;7.40;99.90
37410;DHT22;23275;48.914;12.566;2024-03-02T09:09:48;7.50;99.90
37410;DHT22;23275;48.914;12.566;2024-03-02T09:12:14;7.70;99.90
37410;DHT22;23275;48.914;12.566;2024-03-02T09:14:40;7.80;99.90
37410;DHT22;23275;48.914;12.566;2024-03-02T09:17:06;8.00;99.90
37410;DHT22;23275;48.914;12.566;2024-03-02T09:19:32;8.30;99.90
37410;DHT22;23275;48.914;12.566;2024-03-02T09:21:57;8.90;99.90
37410;DHT22;23275;48.914;12.566;2024-03-02T09:24:24;9.40;99.90
37410;DHT22;23275;48.914;12.566;2024-03-02T09:26:50;9.90;99.90
37410;DHT22;23275;48.914;12.566;2024-03-02T09:29:15;10.20;99.90
37410;DHT22;23275;48.914;12.566;2024-03-02T09:31:41;10.90;99.90
37410;DHT22;23275;48.914;12.566;2024-03-02T09:34:07;11.30;99.90
37410;DHT22;23275;48.914;12.566;2024-03-02T09:36:33;11.40;99.90
37410;DHT22;23275;48.914;12.566;2024-03-02T09:38:58;12.10;99.90
37410;DHT22;23275;48.914;12.566;2024-03-02T09:41:24;13.30;99.90
37410;DHT22;23275;48.914;12.566;2024-03-02T09:43:50;13.10;99.90
37410;DHT22;23275;48.914;12.566;2024-03-02T09:46:16;12.40;99.90
37410;DHT22;23275;48.914;12.566;2024-03-02T09:48:44;11.80;99.90
37410;DHT22;23275;48.914;12.566;2024-03-02T09:51:10;11.40;99.90
37410;DHT22;23275;48.914;12.566;2024-03-02T09:53:36;11.90;99.90
37410;DHT22;23275;48.914;12.566;2024-03-02T09:56:02;16.30;99.90
37410;DHT22;23275;48.914;12.566;2024-03-02T09:58:29;17.60;99.90
37410;DHT22;23275;48.914;12.566;2024-03-02T10:00:54;16.20;99.90
37410;DHT22;23275;48.914;12.566;2024-03-02T10:03:20;14.90;99.90
37410;DHT22;23275;48.914;12.566;2024-03-02T10:05:46;14.70;99.90
37410;DHT22;23275;48.914;12.566;2024-03-02T10:08:12;14.90;99.90
37410;DHT22;23275;48.914;12.566;2024-03-02T10:10:39;14.40;99.90
37410;DHT22;23275;48.914;12.566;2024-03-02T10:13:12;13.80;99.90
37410;DHT22;23275;48.914;12.566;2024-03-02T10:15:40;13.50;99.90
37410;DHT22;23275;48.914;12.566;2024-03-02T10:18:12;13.40;99.90
37410;DHT22;23275;48.914;12.566;2024-03-02T10:20:39;13.30;99.90
37410;DHT22;23275;48.914;12.566;2024-03-02T10:23:12;14.10;99.90
37410;DHT22;23275;48.914;12.566;2024-03-02T10:25:38;16.20;99.90
37410;DHT22;23275;48.914;12.566;2024-03-02T10:28:04;18.50;99.90
37410;DHT22;23275;48.914;12.566;2024-03-02T10:30:34;17.70;99.90
37410;DHT22;23275;48.914;12.566;2024-03-02T10:33:04;17.00;99.90
37410;DHT22;23275;48.914;12.566;2024-03-02T10:35:31;16.90;99.90
37410;DHT22;23275;48.914;12.566;2024-03-02T10:37:59;18.00;99.90
37410;DHT22;23275;48.914;12.566;2024-03-02T10:40:26;18.90;99.90
37410;DHT22;23275;48.914;12.566;2024-03-02T10:42:52;19.80;99.90
37410;DHT22;23275;48.914;12.566;2024-03-02T10:45:20;20.50;99.90
37410;DHT22;23275;48.914;12.566;2024-03-02T10:47:49;20.30;99.90
37410;DHT22;23275;48.914;12.566;2024-03-02T10:50:15;21.20;99.90
37410;DHT22;23275;48.914;12.566;2024-03-02T10:52:41;20.90;99.90
37410;DHT22;23275;48.914;12.566;2024-03-02T10:55:08;20.40;99.90
37410;DHT22;23275;48.914;12.566;2024-03-02T10:57:53;19.60;99.90
37410;DHT22;23275;48.914;12.566;2024-03-02T11:00:19;20.20;99.90
37410;DHT22;23275;48.914;12.566;2024-03-02T11:02:51;20.60;99.90
37410;DHT22;23275;48.914;12.566;2024-03-02T11:05:28;21.20;99.20
37410;DHT22;23275;48.914;12.566;2024-03-02T11:08:07;21.20;99.90
37410;DHT22;23275;48.914;12.566;2024-03-02T11:10:35;19.70;99.90
37410;DHT22;23275;48.914;12.566;2024-03-02T11:13:06;18.10;99.90
37410;DHT22;23275;48.914;12.566;2024-03-02T11:15:35;16.10;99.90
37410;DHT22;23275;48.914;12.566;2024-03-02T11:18:04;14.40;99.90
37410;DHT22;23275;48.914;12.566;2024-03-02T11:20:37;13.70;99.90
37410;DHT22;23275;48.914;12.566;2024-03-02T11:23:08;13.10;99.90
37410;DHT22;23275;48.914;12.566;2024-03-02T11:25:34;12.80;99.90
37410;DHT22;23275;48.914;12.566;2024-03-02T11:28:01;12.60;99.90
37410;DHT22;23275;48.914;12.566;2024-03-02T11:33:00;12.30;99.90
37410;DHT22;23275;48.914;12.566;2024-03-02T11:35:26;12.20;99.90
37410;DHT22;23275;48.914;12.566;2024-03-02T11:37:52;11.90;99.90
37410;DHT22;23275;48.914;12.566;2024-03-02T11:40:27;11.90;99.90
37410;DHT22;23275;48.914;12.566;2024-03-02T11:42:53;11.80;99.90
37410;DHT22;23275;48.914;12.566;2024-03-02T11:45:26;11.70;99.90
37410;DHT22;23275;48.914;12.566;2024-03-02T11:47:56;11.80;99.90
37410;DHT22;23275;48.914;12.566;2024-03-02T11:50:35;11.80;99.90
37410;DHT22;23275;48.914;12.566;2024-03-02T11:53:05;11.80;99.90
37410;DHT22;23275;48.914;12.566;2024-03-02T11:55:35;11.70;99.90
37410;DHT22;23275;48.914;12.566;2024-03-02T11:58:15;11.90;99.90
37410;DHT22;23275;48.914;12.566;2024-03-02T12:00:46;12.00;99.90
37410;DHT22;23275;48.914;12.566;2024-03-02T12:03:15;12.00;99.90
37410;DHT22;23275;48.914;12.566;2024-03-02T12:05:41;12.10;99.90
37410;DHT22;23275;48.914;12.566;2024-03-02T12:08:07;12.10;99.90
37410;DHT22;23275;48.914;12.566;2024-03-02T12:10:34;12.40;99.90
37410;DHT22;23275;48.914;12.566;2024-03-02T12:13:02;12.60;99.90
37410;DHT22;23275;48.914;12.566;2024-03-02T12:15:30;12.70;99.90
37410;DHT22;23275;48.914;12.566;2024-03-02T12:17:57;12.90;99.90
37410;DHT22;23275;48.914;12.566;2024-03-02T12:20:24;13.00;99.90
37410;DHT22;23275;48.914;12.566;2024-03-02T12:22:51;12.80;99.90
37410;DHT22;23275;48.914;12.566;2024-03-02T12:25:18;12.50;99.90
37410;DHT22;23275;48.914;12.566;2024-03-02T12:27:45;12.20;99.90
37410;DHT22;23275;48.914;12.566;2024-03-02T12:30:12;12.20;99.90
37410;DHT22;23275;48.914;12.566;2024-03-02T12:32:40;12.20;99.90
37410;DHT22;23275;48.914;12.566;2024-03-02T12:35:05;12.00;99.90
37410;DHT22;23275;48.914;12.566;2024-03-02T12:37:31;12.10;99.90
37410;DHT22;23275;48.914;12.566;2024-03-02T12:39:57;12.20;99.90
37410;DHT22;23275;48.914;12.566;2024-03-02T12:42:24;12.20;99.90
37410;DHT22;23275;48.914;12.566;2024-03-02T12:44:52;12.20;99.90
37410;DHT22;23275;48.914;12.566;2024-03-02T12:47:20;12.10;99.90
37410;DHT22;23275;48.914;12.566;2024-03-02T12:49:46;12.20;99.90
37410;DHT22;23275;48.914;12.566;2024-03-02T12:52:14;12.30;99.90
37410;DHT22;23275;48.914;12.566;2024-03-02T12:54:40;12.60;99.90
37410;DHT22;23275;48.914;12.566;2024-03-02T12:57:05;12.70;99.90
37410;DHT22;23275;48.914;12.566;2024-03-02T12:59:31;12.70;99.90
37410;DHT22;23275;48.914;12.566;2024-03-02T13:01:57;12.70;99.90
37410;DHT22;23275;48.914;12.566;2024-03-02T13:04:25;12.60;99.90
37410;DHT22;23275;48.914;12.566;2024-03-02T13:06:52;12.60;99.90
37410;DHT22;23275;48.914;12.566;2024-03-02T13:09:17;12.50;99.90
37410;DHT22;23275;48.914;12.566;2024-03-02T13:11:43;12.30;99.90
37410;DHT22;23275;48.914;12.566;2024-03-02T13:14:10;12.00;99.90
37410;DHT22;23275;48.914;12.566;2024-03-02T13:16:42;11.70;99.90
37410;DHT22;23275;48.914;12.566;2024-03-02T13:19:11;11.80;99.90
37410;DHT22;23275;48.914;12.566;2024-03-02T13:21:37;11.70;99.90
37410;DHT22;23275;48.914;12.566;2024-03-02T13:24:04;11.50;99.90
37410;DHT22;23275;48.914;12.566;2024-03-02T13:26:30;11.40;99.90
37410;DHT22;23275;48.914;12.566;2024-03-02T13:28:56;11.40;99.90
37410;DHT22;23275;48.914;12.566;2024-03-02T13:31:21;11.50;99.90
37410;DHT22;23275;48.914;12.566;2024-03-02T13:33:47;11.40;99.90
37410;DHT22;23275;48.914;12.566;2024-03-02T13:36:13;11.40;99.90
37410;DHT22;23275;48.914;12.566;2024-03-02T13:38:38;11.60;99.90
37410;DHT22;23275;48.914;12.566;2024-03-02T13:41:04;11.70;99.90
37410;DHT22;23275;48.914;12.566;2024-03-02T13:43:30;11.60;99.90
37410;DHT22;23275;48.914;12.566;2024-03-02T13:46:00;11.40;99.90
37410;DHT22;23275;48.914;12.566;2024-03-02T13:48:26;11.40;99.90
37410;DHT22;23275;48.914;12.566;2024-03-02T13:50:52;11.40;99.90
37410;DHT22;23275;48.914;12.566;2024-03-02T13:53:18;11.40;99.90
37410;DHT22;23275;48.914;12.566;2024-03-02T13:55:44;11.40;99.90
37410;DHT22;23275;48.914;12.566;2024-03-02T13:58:10;11.40;99.90
37410;DHT22;23275;48.914;12.566;2024-03-02T14:00:37;11.50;99.90
37410;DHT22;23275;48.914;12.566;2024-03-02T14:03:04;11.60;99.90
37410;DHT22;23275;48.914;12.566;2024-03-02T14:05:31;11.50;99.90
37410;DHT22;23275;48.914;12.566;2024-03-02T14:07:57;11.50;99.90
37410;DHT22;23275;48.914;12.566;2024-03-02T14:10:22;11.60;99.90
37410;DHT22;23275;48.914;12.566;2024-03-02T14:12:49;11.60;99.90
37410;DHT22;23275;48.914;12.566;2024-03-02T14:15:14;11.60;99.90
37410;DHT22;23275;48.914;12.566;2024-03-02T14:17:40;11.50;99.90
37410;DHT22;23275;48.914;12.566;2024-03-02T14:20:06;11.50;99.90
37410;DHT22;23275;48.914;12.566;2024-03-02T14:22:32;11.60;99.90
37410;DHT22;23275;48.914;12.566;2024-03-02T14:24:59;11.50;99.90
37410;DHT22;23275;48.914;12.566;2024-03-02T14:27:25;11.60;99.90
37410;DHT22;23275;48.914;12.566;2024-03-02T14:29:51;11.60;99.90
37410;DHT22;23275;48.914;12.566;2024-03-02T14:32:16;11.50;99.90
37410;DHT22;23275;48.914;12.566;2024-03-02T14:34:42;11.40;99.90
37410;DHT22;23275;48.914;12.566;2024-03-02T14:37:08;11.50;99.90
37410;DHT22;23275;48.914;12.566;2024-03-02T14:39:33;11.50;99.90
37410;DHT22;23275;48.914;12.566;2024-03-02T14:42:01;11.50;99.90
37410;DHT22;23275;48.914;12.566;2024-03-02T14:44:26;11.50;99.90
37410;DHT22;23275;48.914;12.566;2024-03-02T14:46:52;11.60;99.90
37410;DHT22;23275;48.914;12.566;2024-03-02T14:49:18;11.60;99.90
37410;DHT22;23275;48.914;12.566;2024-03-02T14:51:44;11.50;99.90
37410;DHT22;23275;48.914;12.566;2024-03-02T14:54:09;11.50;99.90
37410;DHT22;23275;48.914;12.566;2024-03-02T14:56:35;11.60;99.90
37410;DHT22;23275;48.914;12.566;2024-03-02T14:59:00;11.60;99.90
37410;DHT22;23275;48.914;12.566;2024-03-02T15:01:26;11.60;99.90
37410;DHT22;23275;48.914;12.566;2024-03-02T15:03:52;11.60;99.90
37410;DHT22;23275;48.914;12.566;2024-03-02T15:06:17;11.60;99.90
37410;DHT22;23275;48.914;12.566;2024-03-02T15:08:43;11.50;99.90
37410;DHT22;23275;48.914;12.566;2024-03-02T15:11:11;11.50;99.90
37410;DHT22;23275;48.914;12.566;2024-03-02T15:13:37;11.50;99.90
37410;DHT22;23275;48.914;12.566;2024-03-02T15:16:03;11.50;99.90
37410;DHT22;23275;48.914;12.566;2024-03-02T15:18:28;11.50;99.90
37410;DHT22;23275;48.914;12.566;2024-03-02T15:20:54;11.40;99.90
37410;DHT22;23275;48.914;12.566;2024-03-02T15:23:19;11.40;99.90
37410;DHT22;23275;48.914;12.566;2024-03-02T15:25:45;11.30;99.90
37410;DHT22;23275;48.914;12.566;2024-03-02T15:28:11;11.30;99.90
37410;DHT22;23275;48.914;12.566;2024-03-02T15:30:36;11.30;99.90